sensor_id;sensor_type;location;lat;lon;timestamp;P1;durP1;ratioP1;P2;durP2;ratioP2
16270;SDS011;8243;49.048;8.396;2022-07-10T00:02:11;4.70;;;4.30;;
16270;SDS011;8243;49.048;8.396;2022-07-10T00:04:36;4.80;;;4.40;;
16270;SDS011;8243;49.048;8.396;2022-07-10T00:07:02;4.50;;;4.10;;
16270;SDS011;8243;49.048;8.396;2022-07-10T00:09:28;4.80;;;4.40;;
16270;SDS011;8243;49.048;8.396;2022-07-10T00:11:54;4.63;;;4.10;;
16270;SDS011;8243;49.048;8.396;2022-07-10T00:14:20;5.20;;;4.10;;
16270;SDS011;8243;49.048;8.396;2022-07-10T00:16:46;6.00;;;4.20;;
16270;SDS011;8243;49.048;8.396;2022-07-10T00:19:11;5.00;;;4.57;;
16270;SDS011;8243;49.048;8.396;2022-07-10T00:21:37;4.73;;;4.33;;
16270;SDS011;8243;49.048;8.396;2022-07-10T00:24:03;4.73;;;4.37;;
16270;SDS011;8243;49.048;8.396;2022-07-10T00:26:29;5.13;;;4.70;;
16270;SDS011;8243;49.048;8.396;2022-07-10T00:28:55;4.87;;;4.47;;
16270;SDS011;8243;49.048;8.396;2022-07-10T00:31:20;5.17;;;4.67;;
16270;SDS011;8243;49.048;8.396;2022-07-10T00:33:46;5.17;;;4.77;;
16270;SDS011;8243;49.048;8.396;2022-07-10T00:36:13;5.57;;;4.70;;
16270;SDS011;8243;49.048;8.396;2022-07-10T00:38:39;6.30;;;5.70;;
16270;SDS011;8243;49.048;8.396;2022-07-10T00:41:05;6.00;;;5.43;;
16270;SDS011;8243;49.048;8.396;2022-07-10T00:43:50;5.83;;;5.33;;
16270;SDS011;8243;49.048;8.396;2022-07-10T00:46:20;6.97;;;5.53;;
16270;SDS011;8243;49.048;8.396;2022-07-10T00:48:47;7.80;;;6.23;;
16270;SDS011;8243;49.048;8.396;2022-07-10T00:51:13;5.63;;;5.03;;
16270;SDS011;8243;49.048;8.396;2022-07-10T00:53:39;5.60;;;5.10;;
16270;SDS011;8243;49.048;8.396;2022-07-10T00:56:05;5.30;;;4.90;;
16270;SDS011;8243;49.048;8.396;2022-07-10T00:58:32;5.60;;;5.10;;
16270;SDS011;8243;49.048;8.396;2022-07-10T01:00:59;6.37;;;5.73;;
16270;SDS011;8243;49.048;8.396;2022-07-10T01:03:26;6.00;;;5.30;;
16270;SDS011;8243;49.048;8.396;2022-07-10T01:05:52;4.83;;;4.43;;
16270;SDS011;8243;49.048;8.396;2022-07-10T01:08:18;4.30;;;3.90;;
16270;SDS011;8243;49.048;8.396;2022-07-10T01:10:43;6.47;;;3.67;;
16270;SDS011;8243;49.048;8.396;2022-07-10T01:13:11;4.23;;;3.83;;
16270;SDS011;8243;49.048;8.396;2022-07-10T01:15:37;4.57;;;3.40;;
16270;SDS011;8243;49.048;8.396;2022-07-10T01:18:03;4.30;;;3.53;;
16270;SDS011;8243;49.048;8.396;2022-07-10T01:20:32;4.10;;;3.50;;
16270;SDS011;8243;49.048;8.396;2022-07-10T01:22:58;6.93;;;3.80;;
16270;SDS011;8243;49.048;8.396;2022-07-10T01:25:25;3.97;;;3.37;;
16270;SDS011;8243;49.048;8.396;2022-07-10T01:27:50;4.97;;;3.50;;
16270;SDS011;8243;49.048;8.396;2022-07-10T01:30:16;4.60;;;3.30;;
16270;SDS011;8243;49.048;8.396;2022-07-10T01:32:44;5.63;;;3.13;;
16270;SDS011;8243;49.048;8.396;2022-07-10T01:35:10;3.83;;;3.20;;
16270;SDS011;8243;49.048;8.396;2022-07-10T01:37:36;2.97;;;2.70;;
16270;SDS011;8243;49.048;8.396;2022-07-10T01:40:02;4.17;;;2.73;;
16270;SDS011;8243;49.048;8.396;2022-07-10T01:42:28;3.53;;;2.77;;
16270;SDS011;8243;49.048;8.396;2022-07-10T01:44:54;3.87;;;2.70;;
16270;SDS011;8243;49.048;8.396;2022-07-10T01:47:20;4.83;;;3.00;;
16270;SDS011;8243;49.048;8.396;2022-07-10T01:49:49;3.77;;;3.03;;
16270;SDS011;8243;49.048;8.396;2022-07-10T01:52:18;5.20;;;2.90;;
16270;SDS011;8243;49.048;8.396;2022-07-10T01:54:44;4.30;;;2.83;;
16270;SDS011;8243;49.048;8.396;2022-07-10T01:57:11;3.60;;;2.77;;
16270;SDS011;8243;49.048;8.396;2022-07-10T01:59:36;2.97;;;2.60;;
16270;SDS011;8243;49.048;8.396;2022-07-10T02:02:02;3.93;;;2.97;;
16270;SDS011;8243;49.048;8.396;2022-07-10T02:04:27;4.03;;;2.90;;
16270;SDS011;8243;49.048;8.396;2022-07-10T02:07:12;4.30;;;2.70;;
16270;SDS011;8243;49.048;8.396;2022-07-10T02:09:39;3.80;;;2.80;;
16270;SDS011;8243;49.048;8.396;2022-07-10T02:12:06;4.47;;;2.67;;
16270;SDS011;8243;49.048;8.396;2022-07-10T02:14:33;5.17;;;2.87;;
16270;SDS011;8243;49.048;8.396;2022-07-10T02:16:58;4.40;;;2.70;;
16270;SDS011;8243;49.048;8.396;2022-07-10T02:19:24;5.37;;;2.53;;
16270;SDS011;8243;49.048;8.396;2022-07-10T02:21:53;3.23;;;2.53;;
16270;SDS011;8243;49.048;8.396;2022-07-10T02:24:18;3.03;;;2.60;;
16270;SDS011;8243;49.048;8.396;2022-07-10T02:26:44;2.37;;;2.17;;
16270;SDS011;8243;49.048;8.396;2022-07-10T02:29:09;4.23;;;2.50;;
16270;SDS011;8243;49.048;8.396;2022-07-10T02:31:35;3.53;;;2.50;;
16270;SDS011;8243;49.048;8.396;2022-07-10T02:34:08;3.10;;;2.17;;
16270;SDS011;8243;49.048;8.396;2022-07-10T02:36:35;3.67;;;2.43;;
16270;SDS011;8243;49.048;8.396;2022-07-10T02:39:01;4.13;;;2.47;;
16270;SDS011;8243;49.048;8.396;2022-07-10T02:41:27;4.23;;;2.67;;
16270;SDS011;8243;49.048;8.396;2022-07-10T02:43:53;4.53;;;2.97;;
16270;SDS011;8243;49.048;8.396;2022-07-10T02:46:19;2.60;;;2.40;;
16270;SDS011;8243;49.048;8.396;2022-07-10T02:48:44;3.37;;;2.60;;
16270;SDS011;8243;49.048;8.396;2022-07-10T02:51:10;3.63;;;2.47;;
16270;SDS011;8243;49.048;8.396;2022-07-10T02:53:35;3.90;;;2.47;;
16270;SDS011;8243;49.048;8.396;2022-07-10T02:56:01;4.17;;;2.50;;
16270;SDS011;8243;49.048;8.396;2022-07-10T02:58:27;5.03;;;2.63;;
16270;SDS011;8243;49.048;8.396;2022-07-10T03:00:52;3.67;;;2.73;;
16270;SDS011;8243;49.048;8.396;2022-07-10T03:03:18;2.47;;;2.27;;
16270;SDS011;8243;49.048;8.396;2022-07-10T03:05:44;7.47;;;2.73;;
16270;SDS011;8243;49.048;8.396;2022-07-10T03:08:10;7.67;;;2.77;;
16270;SDS011;8243;49.048;8.396;2022-07-10T03:10:36;3.67;;;2.43;;
16270;SDS011;8243;49.048;8.396;2022-07-10T03:13:02;4.63;;;2.50;;
16270;SDS011;8243;49.048;8.396;2022-07-10T03:15:28;3.97;;;2.67;;
16270;SDS011;8243;49.048;8.396;2022-07-10T03:17:53;5.47;;;2.50;;
16270;SDS011;8243;49.048;8.396;2022-07-10T03:20:19;5.03;;;2.70;;
16270;SDS011;8243;49.048;8.396;2022-07-10T03:22:45;3.73;;;2.40;;
16270;SDS011;8243;49.048;8.396;2022-07-10T03:25:10;4.33;;;2.33;;
16270;SDS011;8243;49.048;8.396;2022-07-10T03:27:36;4.43;;;2.57;;
16270;SDS011;8243;49.048;8.396;2022-07-10T03:30:02;4.07;;;2.70;;
16270;SDS011;8243;49.048;8.396;2022-07-10T03:32:28;5.80;;;2.80;;
16270;SDS011;8243;49.048;8.396;2022-07-10T03:34:54;3.60;;;2.40;;
16270;SDS011;8243;49.048;8.396;2022-07-10T03:37:19;4.63;;;2.17;;
16270;SDS011;8243;49.048;8.396;2022-07-10T03:39:45;5.07;;;2.37;;
16270;SDS011;8243;49.048;8.396;2022-07-10T03:42:10;3.37;;;2.27;;
16270;SDS011;8243;49.048;8.396;2022-07-10T03:44:36;2.57;;;2.10;;
16270;SDS011;8243;49.048;8.396;2022-07-10T03:47:02;7.13;;;2.70;;
16270;SDS011;8243;49.048;8.396;2022-07-10T03:49:28;3.43;;;2.30;;
16270;SDS011;8243;49.048;8.396;2022-07-10T03:51:53;3.70;;;2.33;;
16270;SDS011;8243;49.048;8.396;2022-07-10T03:54:19;3.37;;;2.37;;
16270;SDS011;8243;49.048;8.396;2022-07-10T03:56:45;5.40;;;2.50;;
16270;SDS011;8243;49.048;8.396;2022-07-10T03:59:29;3.57;;;2.10;;
16270;SDS011;8243;49.048;8.396;2022-07-10T04:01:54;4.80;;;2.37;;
16270;SDS011;8243;49.048;8.396;2022-07-10T04:04:20;5.70;;;2.50;;
16270;SDS011;8243;49.048;8.396;2022-07-10T04:06:45;4.47;;;2.10;;
16270;SDS011;8243;49.048;8.396;2022-07-10T04:09:11;3.13;;;2.17;;
16270;SDS011;8243;49.048;8.396;2022-07-10T04:11:36;5.10;;;2.30;;
16270;SDS011;8243;49.048;8.396;2022-07-10T04:14:03;5.93;;;2.53;;
16270;SDS011;8243;49.048;8.396;2022-07-10T04:16:28;4.43;;;2.20;;
16270;SDS011;8243;49.048;8.396;2022-07-10T04:18:54;4.47;;;2.10;;
16270;SDS011;8243;49.048;8.396;2022-07-10T04:21:19;4.43;;;1.97;;
16270;SDS011;8243;49.048;8.396;2022-07-10T04:23:45;3.03;;;1.97;;
16270;SDS011;8243;49.048;8.396;2022-07-10T04:26:10;5.23;;;2.10;;
16270;SDS011;8243;49.048;8.396;2022-07-10T04:28:36;5.10;;;2.10;;
16270;SDS011;8243;49.048;8.396;2022-07-10T04:31:01;5.40;;;2.50;;
16270;SDS011;8243;49.048;8.396;2022-07-10T04:33:27;3.33;;;1.70;;
16270;SDS011;8243;49.048;8.396;2022-07-10T04:35:52;2.47;;;1.87;;
16270;SDS011;8243;49.048;8.396;2022-07-10T04:38:18;5.00;;;2.30;;
16270;SDS011;8243;49.048;8.396;2022-07-10T04:40:43;2.53;;;1.97;;
16270;SDS011;8243;49.048;8.396;2022-07-10T04:43:09;3.97;;;2.53;;
16270;SDS011;8243;49.048;8.396;2022-07-10T04:45:37;4.03;;;2.03;;
16270;SDS011;8243;49.048;8.396;2022-07-10T04:48:04;2.90;;;1.83;;
16270;SDS011;8243;49.048;8.396;2022-07-10T04:50:30;5.00;;;1.90;;
16270;SDS011;8243;49.048;8.396;2022-07-10T04:52:55;3.90;;;1.90;;
16270;SDS011;8243;49.048;8.396;2022-07-10T04:55:21;2.20;;;1.73;;
16270;SDS011;8243;49.048;8.396;2022-07-10T04:57:47;1.73;;;1.63;;
16270;SDS011;8243;49.048;8.396;2022-07-10T05:00:13;5.17;;;2.33;;
16270;SDS011;8243;49.048;8.396;2022-07-10T05:02:39;3.37;;;1.80;;
16270;SDS011;8243;49.048;8.396;2022-07-10T05:05:05;2.03;;;1.63;;
16270;SDS011;8243;49.048;8.396;2022-07-10T05:07:30;4.03;;;1.73;;
16270;SDS011;8243;49.048;8.396;2022-07-10T05:09:59;5.03;;;1.60;;
16270;SDS011;8243;49.048;8.396;2022-07-10T05:12:25;6.57;;;2.10;;
16270;SDS011;8243;49.048;8.396;2022-07-10T05:14:51;2.90;;;1.83;;
16270;SDS011;8243;49.048;8.396;2022-07-10T05:17:16;3.87;;;1.67;;
16270;SDS011;8243;49.048;8.396;2022-07-10T05:19:43;2.43;;;1.60;;
16270;SDS011;8243;49.048;8.396;2022-07-10T05:22:08;3.73;;;1.50;;
16270;SDS011;8243;49.048;8.396;2022-07-10T05:24:34;2.43;;;1.60;;
16270;SDS011;8243;49.048;8.396;2022-07-10T05:27:00;3.47;;;1.67;;
16270;SDS011;8243;49.048;8.396;2022-07-10T05:29:26;3.43;;;1.57;;
16270;SDS011;8243;49.048;8.396;2022-07-10T05:31:52;5.37;;;1.87;;
16270;SDS011;8243;49.048;8.396;2022-07-10T05:34:17;3.60;;;1.90;;
16270;SDS011;8243;49.048;8.396;2022-07-10T05:36:43;3.97;;;1.90;;
16270;SDS011;8243;49.048;8.396;2022-07-10T05:39:08;3.00;;;1.43;;
16270;SDS011;8243;49.048;8.396;2022-07-10T05:41:34;3.67;;;1.80;;
16270;SDS011;8243;49.048;8.396;2022-07-10T05:43:59;4.33;;;1.90;;
16270;SDS011;8243;49.048;8.396;2022-07-10T05:46:25;4.50;;;1.60;;
16270;SDS011;8243;49.048;8.396;2022-07-10T05:48:51;4.03;;;1.90;;
16270;SDS011;8243;49.048;8.396;2022-07-10T05:51:16;3.27;;;1.80;;
16270;SDS011;8243;49.048;8.396;2022-07-10T05:53:42;3.13;;;1.60;;
16270;SDS011;8243;49.048;8.396;2022-07-10T05:56:07;4.13;;;1.80;;
16270;SDS011;8243;49.048;8.396;2022-07-10T05:58:33;4.77;;;1.87;;
16270;SDS011;8243;49.048;8.396;2022-07-10T06:00:59;3.10;;;1.80;;
16270;SDS011;8243;49.048;8.396;2022-07-10T06:03:24;2.60;;;2.17;;
16270;SDS011;8243;49.048;8.396;2022-07-10T06:05:52;4.33;;;2.00;;
16270;SDS011;8243;49.048;8.396;2022-07-10T06:08:17;6.47;;;1.90;;
16270;SDS011;8243;49.048;8.396;2022-07-10T06:10:43;3.60;;;2.00;;
16270;SDS011;8243;49.048;8.396;2022-07-10T06:13:09;2.83;;;1.77;;
16270;SDS011;8243;49.048;8.396;2022-07-10T06:15:35;5.67;;;1.67;;
16270;SDS011;8243;49.048;8.396;2022-07-10T06:18:01;3.10;;;1.53;;
16270;SDS011;8243;49.048;8.396;2022-07-10T06:20:27;4.77;;;1.60;;
16270;SDS011;8243;49.048;8.396;2022-07-10T06:22:53;3.70;;;2.00;;
16270;SDS011;8243;49.048;8.396;2022-07-10T06:25:18;2.27;;;1.70;;
16270;SDS011;8243;49.048;8.396;2022-07-10T06:27:44;6.67;;;1.70;;
16270;SDS011;8243;49.048;8.396;2022-07-10T06:30:10;4.53;;;1.67;;
16270;SDS011;8243;49.048;8.396;2022-07-10T06:32:35;4.70;;;2.10;;
16270;SDS011;8243;49.048;8.396;2022-07-10T06:35:01;8.20;;;2.23;;
16270;SDS011;8243;49.048;8.396;2022-07-10T06:37:28;3.47;;;2.10;;
16270;SDS011;8243;49.048;8.396;2022-07-10T06:39:55;3.77;;;2.00;;
16270;SDS011;8243;49.048;8.396;2022-07-10T06:42:22;5.00;;;2.03;;
16270;SDS011;8243;49.048;8.396;2022-07-10T06:44:47;4.20;;;1.70;;
16270;SDS011;8243;49.048;8.396;2022-07-10T06:47:14;3.33;;;1.73;;
16270;SDS011;8243;49.048;8.396;2022-07-10T06:50:01;3.37;;;1.50;;
16270;SDS011;8243;49.048;8.396;2022-07-10T06:52:27;1.70;;;1.60;;
16270;SDS011;8243;49.048;8.396;2022-07-10T06:54:53;4.27;;;1.60;;
16270;SDS011;8243;49.048;8.396;2022-07-10T06:57:19;4.20;;;2.03;;
16270;SDS011;8243;49.048;8.396;2022-07-10T06:59:45;4.63;;;1.60;;
16270;SDS011;8243;49.048;8.396;2022-07-10T07:02:14;5.33;;;1.90;;
16270;SDS011;8243;49.048;8.396;2022-07-10T07:04:40;3.57;;;1.70;;
16270;SDS011;8243;49.048;8.396;2022-07-10T07:07:05;3.13;;;1.67;;
16270;SDS011;8243;49.048;8.396;2022-07-10T07:09:31;3.50;;;1.83;;
16270;SDS011;8243;49.048;8.396;2022-07-10T07:11:57;4.20;;;2.10;;
16270;SDS011;8243;49.048;8.396;2022-07-10T07:14:23;3.77;;;1.70;;
16270;SDS011;8243;49.048;8.396;2022-07-10T07:16:48;4.73;;;2.00;;
16270;SDS011;8243;49.048;8.396;2022-07-10T07:19:25;3.57;;;1.80;;
16270;SDS011;8243;49.048;8.396;2022-07-10T07:22:17;2.43;;;1.50;;
16270;SDS011;8243;49.048;8.396;2022-07-10T07:25:16;3.13;;;2.03;;
16270;SDS011;8243;49.048;8.396;2022-07-10T07:27:41;3.87;;;1.90;;
16270;SDS011;8243;49.048;8.396;2022-07-10T07:30:10;3.83;;;1.90;;
16270;SDS011;8243;49.048;8.396;2022-07-10T07:32:37;5.40;;;1.97;;
16270;SDS011;8243;49.048;8.396;2022-07-10T07:35:04;5.17;;;1.90;;
16270;SDS011;8243;49.048;8.396;2022-07-10T07:37:46;3.93;;;1.80;;
16270;SDS011;8243;49.048;8.396;2022-07-10T07:40:14;3.43;;;1.63;;
16270;SDS011;8243;49.048;8.396;2022-07-10T07:42:41;2.53;;;1.47;;
16270;SDS011;8243;49.048;8.396;2022-07-10T07:45:07;2.77;;;1.80;;
16270;SDS011;8243;49.048;8.396;2022-07-10T07:50:20;4.53;;;1.70;;
16270;SDS011;8243;49.048;8.396;2022-07-10T07:52:47;1.93;;;1.50;;
16270;SDS011;8243;49.048;8.396;2022-07-10T07:55:14;4.23;;;1.40;;
16270;SDS011;8243;49.048;8.396;2022-07-10T07:57:40;3.67;;;1.70;;
16270;SDS011;8243;49.048;8.396;2022-07-10T08:00:07;4.67;;;1.80;;
16270;SDS011;8243;49.048;8.396;2022-07-10T08:02:34;5.03;;;2.00;;
16270;SDS011;8243;49.048;8.396;2022-07-10T08:05:00;2.20;;;1.70;;
16270;SDS011;8243;49.048;8.396;2022-07-10T08:07:33;3.47;;;1.50;;
16270;SDS011;8243;49.048;8.396;2022-07-10T08:09:59;2.67;;;1.50;;
16270;SDS011;8243;49.048;8.396;2022-07-10T08:12:25;1.93;;;1.30;;
16270;SDS011;8243;49.048;8.396;2022-07-10T08:14:51;3.97;;;1.80;;
16270;SDS011;8243;49.048;8.396;2022-07-10T08:17:16;1.80;;;1.27;;
16270;SDS011;8243;49.048;8.396;2022-07-10T08:19:42;4.07;;;1.23;;
16270;SDS011;8243;49.048;8.396;2022-07-10T08:22:07;1.77;;;1.60;;
16270;SDS011;8243;49.048;8.396;2022-07-10T08:24:33;3.57;;;1.40;;
16270;SDS011;8243;49.048;8.396;2022-07-10T08:26:58;4.20;;;1.70;;
16270;SDS011;8243;49.048;8.396;2022-07-10T08:29:24;4.17;;;1.70;;
16270;SDS011;8243;49.048;8.396;2022-07-10T08:31:49;4.43;;;1.30;;
16270;SDS011;8243;49.048;8.396;2022-07-10T08:34:15;3.13;;;1.37;;
16270;SDS011;8243;49.048;8.396;2022-07-10T08:36:40;2.67;;;1.30;;
16270;SDS011;8243;49.048;8.396;2022-07-10T08:39:06;2.13;;;1.03;;
16270;SDS011;8243;49.048;8.396;2022-07-10T08:41:31;3.47;;;1.30;;
16270;SDS011;8243;49.048;8.396;2022-07-10T08:43:59;2.43;;;1.40;;
16270;SDS011;8243;49.048;8.396;2022-07-10T08:46:25;3.00;;;1.40;;
16270;SDS011;8243;49.048;8.396;2022-07-10T08:48:53;3.77;;;1.23;;
16270;SDS011;8243;49.048;8.396;2022-07-10T08:51:24;3.47;;;1.30;;
16270;SDS011;8243;49.048;8.396;2022-07-10T08:54:10;2.17;;;1.10;;
16270;SDS011;8243;49.048;8.396;2022-07-10T08:56:39;3.90;;;1.27;;
16270;SDS011;8243;49.048;8.396;2022-07-10T08:59:06;0.70;;;0.70;;
16270;SDS011;8243;49.048;8.396;2022-07-10T09:01:33;2.67;;;1.10;;
16270;SDS011;8243;49.048;8.396;2022-07-10T09:03:59;3.43;;;1.30;;
16270;SDS011;8243;49.048;8.396;2022-07-10T09:06:27;7.97;;;1.53;;
16270;SDS011;8243;49.048;8.396;2022-07-10T09:08:57;3.17;;;1.10;;
16270;SDS011;8243;49.048;8.396;2022-07-10T09:11:28;2.23;;;1.33;;
16270;SDS011;8243;49.048;8.396;2022-07-10T09:13:55;1.53;;;1.00;;
16270;SDS011;8243;49.048;8.396;2022-07-10T09:16:30;3.10;;;1.40;;
16270;SDS011;8243;49.048;8.396;2022-07-10T09:19:13;2.70;;;1.03;;
16270;SDS011;8243;49.048;8.396;2022-07-10T09:21:39;3.03;;;1.00;;
16270;SDS011;8243;49.048;8.396;2022-07-10T09:24:07;1.77;;;0.90;;
16270;SDS011;8243;49.048;8.396;2022-07-10T09:26:33;2.77;;;1.20;;
16270;SDS011;8243;49.048;8.396;2022-07-10T09:29:05;1.43;;;1.00;;
16270;SDS011;8243;49.048;8.396;2022-07-10T09:31:50;1.63;;;1.00;;
16270;SDS011;8243;49.048;8.396;2022-07-10T09:34:16;1.50;;;1.10;;
16270;SDS011;8243;49.048;8.396;2022-07-10T09:36:43;1.47;;;1.10;;
16270;SDS011;8243;49.048;8.396;2022-07-10T09:39:08;1.87;;;0.90;;
16270;SDS011;8243;49.048;8.396;2022-07-10T09:41:34;1.50;;;1.10;;
16270;SDS011;8243;49.048;8.396;2022-07-10T09:44:00;2.30;;;0.90;;
16270;SDS011;8243;49.048;8.396;2022-07-10T09:46:35;2.33;;;0.90;;
16270;SDS011;8243;49.048;8.396;2022-07-10T09:49:04;3.73;;;1.20;;
16270;SDS011;8243;49.048;8.396;2022-07-10T09:51:31;2.10;;;1.00;;
16270;SDS011;8243;49.048;8.396;2022-07-10T09:54:05;2.37;;;1.00;;
16270;SDS011;8243;49.048;8.396;2022-07-10T09:56:53;2.10;;;1.20;;
16270;SDS011;8243;49.048;8.396;2022-07-10T09:59:21;2.17;;;0.87;;
16270;SDS011;8243;49.048;8.396;2022-07-10T10:01:50;1.80;;;0.90;;
16270;SDS011;8243;49.048;8.396;2022-07-10T10:04:20;1.77;;;1.30;;
16270;SDS011;8243;49.048;8.396;2022-07-10T10:06:53;1.73;;;1.07;;
16270;SDS011;8243;49.048;8.396;2022-07-10T10:09:29;1.13;;;1.03;;
16270;SDS011;8243;49.048;8.396;2022-07-10T10:12:07;3.57;;;1.17;;
16270;SDS011;8243;49.048;8.396;2022-07-10T10:14:52;1.53;;;0.87;;
16270;SDS011;8243;49.048;8.396;2022-07-10T10:17:18;1.93;;;1.20;;
16270;SDS011;8243;49.048;8.396;2022-07-10T10:19:45;4.40;;;1.40;;
16270;SDS011;8243;49.048;8.396;2022-07-10T10:22:30;3.07;;;1.17;;
16270;SDS011;8243;49.048;8.396;2022-07-10T10:24:58;1.50;;;1.00;;
16270;SDS011;8243;49.048;8.396;2022-07-10T10:27:26;4.37;;;1.27;;
16270;SDS011;8243;49.048;8.396;2022-07-10T10:29:52;2.13;;;0.93;;
16270;SDS011;8243;49.048;8.396;2022-07-10T10:32:18;3.77;;;0.90;;
16270;SDS011;8243;49.048;8.396;2022-07-10T10:34:45;2.77;;;1.33;;
16270;SDS011;8243;49.048;8.396;2022-07-10T10:40:07;2.47;;;1.10;;
16270;SDS011;8243;49.048;8.396;2022-07-10T10:42:35;2.50;;;1.00;;
16270;SDS011;8243;49.048;8.396;2022-07-10T10:48:23;3.57;;;1.40;;
16270;SDS011;8243;49.048;8.396;2022-07-10T10:50:52;3.57;;;1.30;;
16270;SDS011;8243;49.048;8.396;2022-07-10T10:53:19;4.83;;;1.20;;
16270;SDS011;8243;49.048;8.396;2022-07-10T10:58:38;2.67;;;1.07;;
16270;SDS011;8243;49.048;8.396;2022-07-10T11:06:39;1.67;;;0.90;;
16270;SDS011;8243;49.048;8.396;2022-07-10T11:14:30;2.33;;;1.10;;
16270;SDS011;8243;49.048;8.396;2022-07-10T11:16:57;3.87;;;1.20;;
16270;SDS011;8243;49.048;8.396;2022-07-10T11:19:23;3.13;;;1.47;;
16270;SDS011;8243;49.048;8.396;2022-07-10T11:28:06;1.93;;;0.90;;
16270;SDS011;8243;49.048;8.396;2022-07-10T11:30:49;2.40;;;1.40;;
16270;SDS011;8243;49.048;8.396;2022-07-10T11:33:16;1.63;;;1.10;;
16270;SDS011;8243;49.048;8.396;2022-07-10T11:35:44;2.30;;;0.90;;
16270;SDS011;8243;49.048;8.396;2022-07-10T11:38:12;1.70;;;0.83;;
16270;SDS011;8243;49.048;8.396;2022-07-10T11:40:43;2.27;;;1.07;;
16270;SDS011;8243;49.048;8.396;2022-07-10T11:43:08;1.77;;;0.90;;
16270;SDS011;8243;49.048;8.396;2022-07-10T11:45:38;2.07;;;1.00;;
16270;SDS011;8243;49.048;8.396;2022-07-10T11:48:04;2.90;;;1.10;;
16270;SDS011;8243;49.048;8.396;2022-07-10T11:50:35;3.90;;;1.40;;
16270;SDS011;8243;49.048;8.396;2022-07-10T11:53:02;2.37;;;1.03;;
16270;SDS011;8243;49.048;8.396;2022-07-10T11:55:28;1.80;;;1.03;;
16270;SDS011;8243;49.048;8.396;2022-07-10T11:57:55;3.33;;;0.97;;
16270;SDS011;8243;49.048;8.396;2022-07-10T12:00:21;5.47;;;1.20;;
16270;SDS011;8243;49.048;8.396;2022-07-10T12:02:51;2.27;;;1.10;;
16270;SDS011;8243;49.048;8.396;2022-07-10T12:05:36;3.00;;;1.10;;
16270;SDS011;8243;49.048;8.396;2022-07-10T12:08:03;2.13;;;0.90;;
16270;SDS011;8243;49.048;8.396;2022-07-10T12:10:29;2.13;;;1.43;;
16270;SDS011;8243;49.048;8.396;2022-07-10T12:13:06;2.07;;;1.10;;
16270;SDS011;8243;49.048;8.396;2022-07-10T12:15:37;2.57;;;1.17;;
16270;SDS011;8243;49.048;8.396;2022-07-10T12:18:16;2.80;;;1.40;;
16270;SDS011;8243;49.048;8.396;2022-07-10T12:20:44;1.50;;;0.90;;
16270;SDS011;8243;49.048;8.396;2022-07-10T12:23:13;3.43;;;1.27;;
16270;SDS011;8243;49.048;8.396;2022-07-10T12:25:41;3.13;;;1.20;;
16270;SDS011;8243;49.048;8.396;2022-07-10T12:28:08;3.03;;;1.10;;
16270;SDS011;8243;49.048;8.396;2022-07-10T12:30:47;1.70;;;1.03;;
16270;SDS011;8243;49.048;8.396;2022-07-10T12:33:18;2.33;;;1.50;;
16270;SDS011;8243;49.048;8.396;2022-07-10T12:35:46;1.70;;;1.20;;
16270;SDS011;8243;49.048;8.396;2022-07-10T12:38:19;1.60;;;0.83;;
16270;SDS011;8243;49.048;8.396;2022-07-10T12:40:46;2.27;;;0.87;;
16270;SDS011;8243;49.048;8.396;2022-07-10T12:43:23;1.60;;;1.00;;
16270;SDS011;8243;49.048;8.396;2022-07-10T12:49:03;2.37;;;1.00;;
16270;SDS011;8243;49.048;8.396;2022-07-10T12:51:31;2.77;;;1.17;;
16270;SDS011;8243;49.048;8.396;2022-07-10T12:53:58;3.50;;;0.93;;
16270;SDS011;8243;49.048;8.396;2022-07-10T12:56:31;3.13;;;1.53;;
16270;SDS011;8243;49.048;8.396;2022-07-10T12:59:02;3.03;;;1.43;;
16270;SDS011;8243;49.048;8.396;2022-07-10T13:01:43;2.23;;;0.90;;
16270;SDS011;8243;49.048;8.396;2022-07-10T13:04:11;2.33;;;1.23;;
16270;SDS011;8243;49.048;8.396;2022-07-10T13:06:38;2.13;;;1.20;;
16270;SDS011;8243;49.048;8.396;2022-07-10T13:09:20;2.40;;;1.20;;
16270;SDS011;8243;49.048;8.396;2022-07-10T13:11:48;2.80;;;1.07;;
16270;SDS011;8243;49.048;8.396;2022-07-10T13:14:17;2.30;;;1.20;;
16270;SDS011;8243;49.048;8.396;2022-07-10T13:16:43;1.87;;;1.20;;
16270;SDS011;8243;49.048;8.396;2022-07-10T13:19:09;2.83;;;1.00;;
16270;SDS011;8243;49.048;8.396;2022-07-10T13:21:34;1.93;;;1.13;;
16270;SDS011;8243;49.048;8.396;2022-07-10T13:24:01;4.40;;;1.20;;
16270;SDS011;8243;49.048;8.396;2022-07-10T13:26:28;4.07;;;1.47;;
16270;SDS011;8243;49.048;8.396;2022-07-10T13:28:54;2.97;;;1.03;;
16270;SDS011;8243;49.048;8.396;2022-07-10T13:31:20;3.83;;;1.53;;
16270;SDS011;8243;49.048;8.396;2022-07-10T13:33:46;4.00;;;1.30;;
16270;SDS011;8243;49.048;8.396;2022-07-10T13:36:11;3.07;;;1.00;;
16270;SDS011;8243;49.048;8.396;2022-07-10T13:38:37;2.17;;;1.13;;
16270;SDS011;8243;49.048;8.396;2022-07-10T13:41:02;4.37;;;1.40;;
16270;SDS011;8243;49.048;8.396;2022-07-10T13:43:28;5.33;;;1.70;;
16270;SDS011;8243;49.048;8.396;2022-07-10T13:45:57;3.20;;;1.40;;
16270;SDS011;8243;49.048;8.396;2022-07-10T13:48:24;2.93;;;1.07;;
16270;SDS011;8243;49.048;8.396;2022-07-10T13:50:50;5.57;;;1.53;;
16270;SDS011;8243;49.048;8.396;2022-07-10T13:53:17;3.47;;;1.47;;
16270;SDS011;8243;49.048;8.396;2022-07-10T13:55:43;2.93;;;1.50;;
16270;SDS011;8243;49.048;8.396;2022-07-10T13:58:09;3.13;;;1.43;;
16270;SDS011;8243;49.048;8.396;2022-07-10T14:00:35;2.30;;;1.10;;
16270;SDS011;8243;49.048;8.396;2022-07-10T14:03:02;2.70;;;1.63;;
16270;SDS011;8243;49.048;8.396;2022-07-10T14:05:28;2.20;;;1.20;;
16270;SDS011;8243;49.048;8.396;2022-07-10T14:07:54;5.83;;;1.23;;
16270;SDS011;8243;49.048;8.396;2022-07-10T14:10:20;3.00;;;1.30;;
16270;SDS011;8243;49.048;8.396;2022-07-10T14:12:46;1.53;;;1.27;;
16270;SDS011;8243;49.048;8.396;2022-07-10T14:15:12;1.93;;;1.30;;
16270;SDS011;8243;49.048;8.396;2022-07-10T14:17:38;4.60;;;1.70;;
16270;SDS011;8243;49.048;8.396;2022-07-10T14:20:04;1.87;;;1.10;;
16270;SDS011;8243;49.048;8.396;2022-07-10T14:22:30;4.53;;;1.40;;
16270;SDS011;8243;49.048;8.396;2022-07-10T14:24:56;3.37;;;1.40;;
16270;SDS011;8243;49.048;8.396;2022-07-10T14:27:22;2.83;;;1.27;;
16270;SDS011;8243;49.048;8.396;2022-07-10T14:29:52;2.93;;;1.40;;
16270;SDS011;8243;49.048;8.396;2022-07-10T14:32:18;2.60;;;1.43;;
16270;SDS011;8243;49.048;8.396;2022-07-10T14:34:47;2.80;;;1.40;;
16270;SDS011;8243;49.048;8.396;2022-07-10T14:37:12;1.97;;;1.20;;
16270;SDS011;8243;49.048;8.396;2022-07-10T14:39:38;4.80;;;1.63;;
16270;SDS011;8243;49.048;8.396;2022-07-10T14:42:04;3.70;;;1.60;;
16270;SDS011;8243;49.048;8.396;2022-07-10T14:44:30;2.07;;;1.40;;
16270;SDS011;8243;49.048;8.396;2022-07-10T14:46:57;3.63;;;1.40;;
16270;SDS011;8243;49.048;8.396;2022-07-10T14:49:23;2.63;;;1.40;;
16270;SDS011;8243;49.048;8.396;2022-07-10T14:51:48;2.97;;;1.40;;
16270;SDS011;8243;49.048;8.396;2022-07-10T14:54:14;2.20;;;1.00;;
16270;SDS011;8243;49.048;8.396;2022-07-10T14:56:40;2.63;;;1.20;;
16270;SDS011;8243;49.048;8.396;2022-07-10T14:59:07;2.20;;;1.30;;
16270;SDS011;8243;49.048;8.396;2022-07-10T15:01:33;2.73;;;1.33;;
16270;SDS011;8243;49.048;8.396;2022-07-10T15:03:58;2.83;;;1.60;;
16270;SDS011;8243;49.048;8.396;2022-07-10T15:06:24;1.60;;;1.37;;
16270;SDS011;8243;49.048;8.396;2022-07-10T15:08:50;2.90;;;1.17;;
16270;SDS011;8243;49.048;8.396;2022-07-10T15:11:16;5.27;;;1.33;;
16270;SDS011;8243;49.048;8.396;2022-07-10T15:13:43;1.67;;;1.20;;
16270;SDS011;8243;49.048;8.396;2022-07-10T15:16:09;1.73;;;1.10;;
16270;SDS011;8243;49.048;8.396;2022-07-10T15:18:34;4.53;;;1.40;;
16270;SDS011;8243;49.048;8.396;2022-07-10T15:21:00;3.30;;;1.60;;
16270;SDS011;8243;49.048;8.396;2022-07-10T15:23:25;2.27;;;1.23;;
16270;SDS011;8243;49.048;8.396;2022-07-10T15:25:52;2.13;;;1.47;;
16270;SDS011;8243;49.048;8.396;2022-07-10T15:28:18;3.27;;;1.50;;
16270;SDS011;8243;49.048;8.396;2022-07-10T15:30:44;2.47;;;1.63;;
16270;SDS011;8243;49.048;8.396;2022-07-10T15:33:09;2.37;;;1.30;;
16270;SDS011;8243;49.048;8.396;2022-07-10T15:35:35;2.10;;;1.30;;